Time;durP1;ratioP1;P1;durP2;ratioP2;P2;SDS_P1;SDS_P2;PMS_P1;PMS_P2;Temp;Humidity;BMP_temperature;BMP_pressure;BME280_temperature;BME280_humidity;BME280_pressure;Samples;Min_cycle;Max_cycle;Signal;HPM_P1;HPM_P2
2024/01/28 00:01:42;;;;;;;31.50;13.38;;;5.50;68.40;;;0.49;100.00;96996.75;4942981;28;20038;-61
2024/01/28 00:04:09;;;;;;;34.88;16.58;;;5.50;68.40;;;0.48;100.00;96997.72;4936631;28;20018;-55
2024/01/28 00:06:35;;;;;;;34.15;17.33;;;5.50;68.40;;;0.51;100.00;96994.78;4937003;28;20038;-60
2024/01/28 00:09:01;;;;;;;35.17;17.30;;;5.40;68.50;;;0.48;100.00;96991.69;4939250;28;20025;-58
2024/01/28 00:11:27;;;;;;;41.17;19.02;;;5.40;69.50;;;0.48;100.00;96983.81;4935615;28;20043;-58
2024/01/28 00:13:53;;;;;;;44.22;20.25;;;5.40;68.90;;;0.48;100.00;96984.63;4935531;28;20025;-61
2024/01/28 00:16:20;;;;;;;38.47;19.45;;;5.40;69.00;;;0.46;100.00;96986.59;4936337;28;20039;-60
2024/01/28 00:18:46;;;;;;;40.00;19.88;;;5.40;69.10;;;0.47;100.00;96990.88;4941298;28;20354;-61
2024/01/28 00:21:13;;;;;;;41.80;20.52;;;5.40;69.20;;;0.48;100.00;96974.13;4930215;28;20420;-60
2024/01/28 00:23:39;;;;;;;42.20;20.52;;;5.40;69.30;;;0.51;100.00;96979.03;4941894;28;20040;-59
2024/01/28 00:26:07;;;;;;;45.80;21.60;;;5.40;69.40;;;0.54;100.00;96983.16;4926244;28;20023;-59
2024/01/28 00:28:32;;;;;;;41.15;20.92;;;5.40;69.50;;;0.56;100.00;96971.47;4939056;28;20388;-60
2024/01/28 00:30:58;;;;;;;44.95;21.13;;;5.40;69.60;;;0.58;100.00;96973.94;4942148;28;20038;-57
2024/01/28 00:33:24;;;;;;;46.72;21.83;;;5.40;69.60;;;0.58;100.00;96961.66;4937294;28;20039;-56
2024/01/28 00:35:50;;;;;;;46.25;20.73;;;5.40;69.70;;;0.56;100.00;96960.19;4938754;28;20520;-60
2024/01/28 00:38:16;;;;;;;44.47;21.70;;;5.40;69.80;;;0.57;100.00;96952.16;4929733;28;20030;-61
2024/01/28 00:40:42;;;;;;;44.47;21.50;;;5.40;69.80;;;0.58;100.00;96956.41;4939665;28;20517;-60
2024/01/28 00:43:08;;;;;;;47.63;21.25;;;5.40;69.80;;;0.58;100.00;96958.22;4934095;28;20077;-61
2024/01/28 00:45:33;;;;;;;53.30;22.63;;;5.40;69.80;;;0.59;100.00;96967.72;4936650;28;20026;-60
2024/01/28 00:47:59;;;;;;;53.83;22.38;;;5.40;69.80;;;0.62;100.00;96960.31;4928273;29;20567;-60
2024/01/28 00:50:25;;;;;;;43.72;21.15;;;5.40;70.00;;;0.62;100.00;96967.38;4938395;28;20049;-58
2024/01/28 00:52:51;;;;;;;46.63;19.65;;;5.40;70.00;;;0.61;100.00;96963.13;4944113;28;20019;-58
2024/01/28 00:55:17;;;;;;;43.35;19.70;;;5.40;69.90;;;0.58;100.00;96963.47;4935036;28;20057;-58
2024/01/28 00:57:43;;;;;;;43.17;19.98;;;5.40;69.80;;;0.52;100.00;96961.50;4943083;28;20500;-58
2024/01/28 01:00:10;;;;;;;56.38;18.65;;;5.40;69.70;;;0.44;100.00;96964.97;4931488;28;20031;-57
2024/01/28 01:02:36;;;;;;;44.40;17.30;;;5.40;69.70;;;0.37;100.00;96958.75;4940757;28;20022;-58
2024/01/28 01:05:02;;;;;;;40.78;18.42;;;5.30;69.50;;;0.29;100.00;96966.63;4940889;28;20509;-60
2024/01/28 01:07:28;;;;;;;44.03;18.35;;;5.30;69.20;;;0.19;100.00;96965.00;4937777;28;20031;-54
2024/01/28 01:09:54;;;;;;;45.90;17.50;;;5.30;69.10;;;0.09;100.00;96963.53;4934890;28;20802;-59
2024/01/28 01:12:20;;;;;;;43.65;18.38;;;5.20;69.00;;;-0.02;100.00;96967.31;4926142;28;20118;-58
2024/01/28 01:14:46;;;;;;;42.50;18.90;;;5.10;68.90;;;-0.07;100.00;96966.97;4938618;28;20454;-59
2024/01/28 01:17:12;;;;;;;40.38;18.13;;;5.10;68.90;;;-0.13;100.00;96962.38;4940694;28;20038;-55
2024/01/28 01:19:38;;;;;;;107.72;21.75;;;5.00;69.00;;;-0.15;100.00;96956.50;4933648;28;20022;-57
2024/01/28 01:22:04;;;;;;;41.60;18.50;;;5.00;69.00;;;-0.16;100.00;96963.53;4937962;28;20117;-57
2024/01/28 01:24:30;;;;;;;34.28;17.05;;;4.90;69.00;;;-0.21;100.00;96957.16;4926121;28;20076;-60
2024/01/28 01:26:56;;;;;;;43.67;17.38;;;4.90;68.90;;;-0.28;100.00;96962.25;4932364;28;20030;-58
2024/01/28 01:29:23;;;;;;;34.67;16.48;;;4.80;68.90;;;-0.36;100.00;96970.88;4935476;29;20026;-60
2024/01/28 01:31:49;;;;;;;55.38;19.25;;;4.80;68.90;;;-0.40;100.00;96966.16;4943349;28;20108;-60
2024/01/28 01:34:14;;;;;;;34.40;17.10;;;4.70;68.90;;;-0.48;100.00;96973.00;4926496;29;21004;-59
2024/01/28 01:36:44;;;;;;;42.17;17.90;;;4.60;68.90;;;-0.58;100.00;96961.84;4940953;29;20591;-60
2024/01/28 01:39:10;;;;;;;46.05;18.75;;;4.50;68.90;;;-0.59;100.00;96951.56;4939456;29;20147;-58
2024/01/28 01:41:36;;;;;;;42.80;18.73;;;4.60;69.00;;;-0.58;100.00;96956.63;4926597;29;20023;-60
2024/01/28 01:44:02;;;;;;;42.22;17.73;;;4.50;69.10;;;-0.60;100.00;96957.75;4929848;29;20050;-60
2024/01/28 01:46:30;;;;;;;43.78;18.80;;;4.40;69.00;;;-0.62;100.00;96955.31;4920145;29;20031;-60
2024/01/28 01:48:59;;;;;;;84.75;22.17;;;4.40;69.10;;;-0.65;100.00;96963.50;4924869;29;20054;-60
2024/01/28 01:51:27;;;;;;;39.90;18.58;;;4.30;69.20;;;-0.63;100.00;96971.16;4916627;29;20512;-60
2024/01/28 01:53:54;;;;;;;83.03;20.88;;;4.30;69.20;;;-0.67;100.00;96969.84;4922467;29;20112;-60
2024/01/28 01:56:21;;;;;;;44.55;20.42;;;4.30;69.30;;;-0.73;100.00;96974.75;4925779;29;20038;-56
2024/01/28 01:58:47;;;;;;;89.80;23.23;;;4.30;69.40;;;-0.73;100.00;96971.31;4925919;29;20089;-60
2024/01/28 02:01:16;;;;;;;44.72;20.92;;;4.30;69.50;;;-0.72;100.00;96967.72;4930985;29;20055;-60
2024/01/28 02:03:43;;;;;;;43.30;20.40;;;4.30;69.60;;;-0.70;100.00;96973.59;4923785;28;20330;-60
2024/01/28 02:06:13;;;;;;;43.90;19.90;;;4.20;69.60;;;-0.68;100.00;96960.38;4924992;29;20129;-56
2024/01/28 02:08:40;;;;;;;43.90;20.33;;;4.20;69.70;;;-0.71;100.00;96964.13;4947654;28;20019;-57
2024/01/28 02:11:07;;;;;;;40.53;18.15;;;4.20;69.70;;;-0.75;100.00;96966.25;4924930;29;20031;-54
2024/01/28 02:13:34;;;;;;;49.28;21.55;;;4.20;69.70;;;-0.76;100.00;96967.22;4920628;29;20026;-55
2024/01/28 02:16:00;;;;;;;57.13;20.48;;;4.20;69.80;;;-0.79;100.00;96964.91;4924501;29;20478;-55
2024/01/28 02:18:25;;;;;;;37.72;18.15;;;4.20;69.80;;;-0.79;100.00;96961.47;4926618;28;20027;-55
2024/01/28 02:20:51;;;;;;;38.78;17.30;;;4.20;69.70;;;-0.82;100.00;96957.38;4921841;28;20256;-56
2024/01/28 02:23:21;;;;;;;38.70;17.40;;;4.20;69.70;;;-0.89;100.00;96961.63;4931396;28;20034;-59
2024/01/28 02:25:49;;;;;;;39.10;17.88;;;4.20;69.60;;;-0.90;100.00;96964.41;4918767;29;20090;-59
2024/01/28 02:28:16;;;;;;;37.50;19.00;;;4.20;69.60;;;-0.88;100.00;96960.63;4929403;29;20090;-52
2024/01/28 02:30:42;;;;;;;36.42;17.65;;;4.10;69.50;;;-0.94;100.00;96964.72;4927167;29;20050;-54
2024/01/28 02:33:09;;;;;;;39.08;17.80;;;4.10;69.50;;;-0.95;100.00;96957.84;4929402;29;20438;-56
2024/01/28 02:35:35;;;;;;;40.45;17.52;;;4.10;69.50;;;-0.98;100.00;96958.16;4962349;23;20060;-51
2024/01/28 02:38:01;;;;;;;39.72;17.65;;;4.10;69.50;;;-1.04;100.00;96963.19;4972294;28;20034;-54
2024/01/28 02:40:26;;;;;;;36.58;16.48;;;4.00;69.40;;;-1.03;100.00;96962.25;4971185;28;20085;-52
2024/01/28 02:42:53;;;;;;;45.97;19.02;;;4.00;69.50;;;-1.07;100.00;96964.31;4972719;28;20060;-55
2024/01/28 02:45:19;;;;;;;84.50;20.75;;;3.90;69.50;;;-1.08;100.00;96954.84;4971344;28;20084;-55
2024/01/28 02:47:45;;;;;;;43.13;18.05;;;3.90;69.50;;;-1.15;100.00;96953.03;4971856;28;20044;-54
2024/01/28 02:50:15;;;;;;;45.92;18.38;;;3.90;69.50;;;-1.21;100.00;96952.69;4972682;28;20023;-55
2024/01/28 02:52:40;;;;;;;44.40;18.58;;;3.90;69.50;;;-1.22;100.00;96950.25;4971211;28;20030;-53
2024/01/28 02:55:07;;;;;;;47.17;19.08;;;3.80;69.50;;;-1.27;100.00;96945.47;4972473;28;20544;-54
2024/01/28 02:57:33;;;;;;;51.35;22.02;;;3.80;69.50;;;-1.27;100.00;96948.06;4972311;28;20030;-52
2024/01/28 02:59:59;;;;;;;58.55;20.25;;;3.70;69.50;;;-1.26;100.00;96954.13;4965203;28;20037;-52
2024/01/28 03:02:25;;;;;;;45.10;19.75;;;3.80;69.70;;;-1.26;100.00;96954.13;4970635;28;20030;-54
2024/01/28 03:04:50;;;;;;;43.33;19.63;;;3.70;69.70;;;-1.28;100.00;96950.88;4971687;28;20026;-56
2024/01/28 03:07:16;;;;;;;47.90;20.17;;;3.70;69.80;;;-1.31;100.00;96946.75;4972578;28;20403;-54
2024/01/28 03:09:42;;;;;;;52.53;21.02;;;3.70;69.80;;;-1.30;100.00;96947.56;4971246;28;20049;-57
2024/01/28 03:12:08;;;;;;;55.45;20.75;;;3.70;69.80;;;-1.31;100.00;96949.38;4970991;28;20034;-56
2024/01/28 03:14:34;;;;;;;46.80;21.00;;;3.70;69.80;;;-1.32;100.00;96945.09;4971421;28;20030;-56
2024/01/28 03:17:00;;;;;;;202.18;27.23;;;3.70;69.90;;;-1.35;100.00;96950.63;4979504;28;20038;-55
2024/01/28 03:19:26;;;;;;;51.13;21.40;;;3.70;70.00;;;-1.32;100.00;96955.56;4971390;28;20501;-55
2024/01/28 03:21:52;;;;;;;58.10;21.17;;;3.70;70.00;;;-1.33;100.00;96951.31;4967860;28;20121;-52
2024/01/28 03:24:18;;;;;;;54.88;19.98;;;3.70;70.00;;;-1.33;100.00;96953.13;4971173;28;20022;-55
2024/01/28 03:26:44;;;;;;;44.00;18.25;;;3.70;70.00;;;-1.46;100.00;96943.91;4972108;28;20096;-53
2024/01/28 03:29:13;;;;;;;42.63;17.77;;;3.60;69.90;;;-1.45;100.00;96955.19;4971139;28;20030;-56
2024/01/28 03:31:40;;;;;;;60.78;19.33;;;3.60;69.80;;;-1.52;100.00;96954.16;4971532;28;20030;-54
2024/01/28 03:34:07;;;;;;;92.20;20.98;;;3.60;69.60;;;-1.52;100.00;96956.78;4971670;28;20018;-56
2024/01/28 03:36:33;;;;;;;40.88;18.92;;;3.50;69.60;;;-1.55;100.00;96957.91;4965430;28;20042;-57
2024/01/28 03:38:59;;;;;;;233.48;25.85;;;3.50;69.60;;;-1.54;100.00;96956.91;4970967;28;20026;-52
2024/01/28 03:41:24;;;;;;;46.50;20.02;;;3.50;69.70;;;-1.52;100.00;96954.97;4969986;28;20121;-54
2024/01/28 03:43:50;;;;;;;46.30;19.67;;;3.50;69.80;;;-1.51;100.00;96955.78;4970739;28;20097;-55
2024/01/28 03:46:16;;;;;;;43.13;18.90;;;3.50;69.80;;;-1.54;100.00;96950.88;4970977;28;20041;-52
2024/01/28 03:48:42;;;;;;;37.95;17.73;;;3.50;69.90;;;-1.56;100.00;96947.63;4971399;28;20037;-57
2024/01/28 03:51:08;;;;;;;43.80;18.10;;;3.50;69.80;;;-1.54;100.00;96951.69;4971491;28;20381;-54
2024/01/28 03:53:34;;;;;;;176.52;23.35;;;3.60;69.90;;;-1.55;100.00;96952.69;4970445;28;20026;-55
2024/01/28 03:56:00;;;;;;;44.97;17.85;;;3.50;69.80;;;-1.56;100.00;96956.28;4971629;28;20045;-50
2024/01/28 03:58:26;;;;;;;124.07;21.38;;;3.50;69.70;;;-1.61;100.00;96952.47;4970062;28;20041;-53
2024/01/28 04:00:51;;;;;;;377.70;32.97;;;3.50;69.80;;;-1.59;100.00;96958.38;4970960;28;20034;-52
2024/01/28 04:03:17;;;;;;;69.93;19.40;;;3.50;69.80;;;-1.61;100.00;96965.53;4971464;28;20034;-56
2024/01/28 04:05:43;;;;;;;97.20;22.35;;;3.50;69.80;;;-1.60;100.00;96961.94;4970190;28;20477;-52
2024/01/28 04:08:12;;;;;;;325.20;32.28;;;3.50;69.90;;;-1.61;100.00;96960.31;4967540;28;20604;-59
2024/01/28 04:10:38;;;;;;;251.20;27.10;;;3.40;69.90;;;-1.64;100.00;96956.22;4969360;28;20048;-53
2024/01/28 04:13:05;;;;;;;103.30;21.48;;;3.50;69.90;;;-1.68;100.00;96965.34;4970550;28;20041;-55
2024/01/28 04:15:31;;;;;;;153.38;22.40;;;3.50;69.90;;;-1.71;100.00;96968.25;4970962;28;20109;-54
2024/01/28 04:17:57;;;;;;;63.65;20.63;;;3.50;69.90;;;-1.70;100.00;96968.09;4968854;28;20034;-55
2024/01/28 04:20:23;;;;;;;142.02;23.67;;;3.40;69.80;;;-1.78;100.00;96970.69;4964459;28;20452;-56
2024/01/28 04:22:49;;;;;;;241.98;28.02;;;3.40;69.80;;;-1.74;100.00;96966.78;4983344;28;20101;-53
2024/01/28 04:25:18;;;;;;;130.02;23.50;;;3.40;69.80;;;-1.73;100.00;96971.00;4968219;28;20432;-52
2024/01/28 04:27:44;;;;;;;449.40;36.50;;;3.40;69.80;;;-1.75;100.00;96966.94;4964822;28;20379;-51
2024/01/28 04:30:11;;;;;;;204.63;28.85;;;3.40;69.90;;;-1.74;100.00;96972.00;4969722;28;20532;-54
2024/01/28 04:32:37;;;;;;;215.45;29.73;;;3.40;70.10;;;-1.69;100.00;96972.38;4971222;28;20034;-53
2024/01/28 04:35:03;;;;;;;68.43;23.60;;;3.40;70.30;;;-1.64;100.00;96971.91;4969932;28;20104;-56
2024/01/28 04:37:30;;;;;;;174.98;29.17;;;3.50;70.50;;;-1.57;100.00;96980.75;4970535;28;20423;-53
2024/01/28 04:39:56;;;;;;;59.53;23.20;;;3.50;70.50;;;-1.47;100.00;96978.88;4970461;28;20056;-52
2024/01/28 04:42:22;;;;;;;100.45;24.67;;;3.60;70.60;;;-1.39;100.00;96983.31;4969358;28;20030;-53
2024/01/28 04:44:52;;;;;;;65.25;23.20;;;3.70;70.70;;;-1.30;100.00;96981.56;4969124;28;20485;-54
2024/01/28 04:47:18;;;;;;;63.10;23.42;;;3.80;70.80;;;-1.22;100.00;96992.06;4962801;28;20037;-55
2024/01/28 04:49:44;;;;;;;61.42;23.55;;;3.80;70.70;;;-1.13;100.00;96983.25;4970430;28;20101;-52
2024/01/28 04:52:10;;;;;;;69.03;23.85;;;3.90;70.70;;;-1.07;100.00;96990.47;4969484;28;20208;-56
2024/01/28 04:54:36;;;;;;;65.70;23.55;;;4.00;70.70;;;-1.01;100.00;96989.03;4970496;28;20022;-53
2024/01/28 04:57:04;;;;;;;58.53;23.15;;;4.10;70.70;;;-0.96;100.00;96986.78;4970443;28;20070;-50
2024/01/28 04:59:30;;;;;;;65.18;23.75;;;4.10;70.60;;;-0.93;100.00;96971.59;4969205;28;20053;-52
2024/01/28 05:01:56;;;;;;;63.35;23.88;;;4.20;70.60;;;-0.88;100.00;96972.91;4970545;28;20030;-49
2024/01/28 05:04:22;;;;;;;58.30;22.80;;;4.30;70.60;;;-0.84;100.00;96969.81;4969520;28;20030;-50
2024/01/28 05:06:49;;;;;;;63.00;22.77;;;4.30;70.60;;;-0.85;100.00;96970.78;4970215;28;20037;-54
2024/01/28 05:09:16;;;;;;;53.22;22.75;;;4.40;70.60;;;-0.82;100.00;96977.50;4966615;28;20528;-56
2024/01/28 05:11:47;;;;;;;67.55;24.60;;;4.40;70.60;;;-0.77;100.00;96973.44;4969243;28;20042;-51
2024/01/28 05:14:12;;;;;;;60.88;23.33;;;4.40;70.60;;;-0.69;100.00;96980.47;4970075;28;20117;-50
2024/01/28 05:16:38;;;;;;;56.67;22.95;;;4.50;70.70;;;-0.62;100.00;96980.69;4960995;28;20040;-52
2024/01/28 05:19:06;;;;;;;55.05;23.10;;;4.50;70.70;;;-0.58;100.00;96985.41;4965744;28;20451;-52
2024/01/28 05:21:32;;;;;;;55.88;22.20;;;4.60;70.70;;;-0.61;100.00;96990.16;4969932;28;20018;-50
2024/01/28 05:23:58;;;;;;;54.65;21.77;;;4.60;70.70;;;-0.51;100.00;96988.22;4969148;28;20555;-52
2024/01/28 05:26:24;;;;;;;56.50;21.05;;;4.70;70.70;;;-0.47;100.00;96992.13;4969981;28;20619;-55
2024/01/28 05:28:50;;;;;;;60.35;23.85;;;4.70;70.70;;;-0.40;100.00;96995.75;4969229;28;20114;-52
2024/01/28 05:31:15;;;;;;;53.28;22.38;;;4.80;70.70;;;-0.35;100.00;96993.47;4969812;28;20117;-52
2024/01/28 05:33:41;;;;;;;72.10;30.67;;;4.80;70.70;;;-0.32;100.00;96997.56;4984971;28;20108;-52
2024/01/28 05:36:15;;;;;;;66.25;23.25;;;4.90;70.80;;;-0.27;100.00;96997.91;4968474;28;20073;-50
2024/01/28 05:38:41;;;;;;;57.90;22.67;;;4.90;70.70;;;-0.20;100.00;96995.47;4969387;28;20049;-52
2024/01/28 05:41:08;;;;;;;57.78;21.95;;;4.90;70.70;;;-0.15;100.00;96996.63;4969320;28;20033;-51
2024/01/28 05:43:34;;;;;;;57.00;21.20;;;5.00;70.70;;;-0.11;100.00;96997.09;4968345;28;20414;-54
2024/01/28 05:46:02;;;;;;;57.85;21.90;;;5.10;70.70;;;-0.15;100.00;96996.63;4963055;28;20018;-50
2024/01/28 05:48:28;;;;;;;59.65;23.23;;;5.10;70.70;;;-0.10;100.00;96996.94;4966171;28;20031;-55
2024/01/28 05:50:54;;;;;;;76.10;23.33;;;5.10;70.60;;;-0.05;100.00;96996.47;4967055;28;20392;-53
2024/01/28 05:53:20;;;;;;;65.90;23.10;;;5.10;70.60;;;-0.01;100.00;96997.75;4965348;28;20452;-55
2024/01/28 05:55:46;;;;;;;75.88;25.40;;;5.20;70.60;;;0.04;100.00;96987.63;4961114;28;20436;-53
2024/01/28 05:58:11;;;;;;;69.85;23.95;;;5.20;70.60;;;0.10;100.00;96991.38;4964368;28;20042;-52
2024/01/28 06:00:37;;;;;;;68.47;23.50;;;5.20;70.70;;;0.14;100.00;96987.44;4967520;28;20073;-51
2024/01/28 06:03:04;;;;;;;71.03;24.27;;;5.30;70.70;;;0.11;100.00;96983.34;4967209;28;20103;-51
2024/01/28 06:05:30;;;;;;;66.93;24.45;;;5.30;70.70;;;0.17;100.00;96990.56;4968736;28;20023;-54
2024/01/28 06:07:56;;;;;;;68.88;24.50;;;5.40;70.70;;;0.23;100.00;96992.53;4958708;28;20033;-51
2024/01/28 06:10:22;;;;;;;73.40;25.50;;;5.40;70.70;;;0.28;100.00;96991.19;4968742;28;20488;-51
2024/01/28 06:12:48;;;;;;;65.30;24.58;;;5.50;70.70;;;0.30;100.00;96995.28;4965277;28;20034;-52
2024/01/28 06:15:14;;;;;;;70.93;22.95;;;5.50;70.60;;;0.32;100.00;96997.75;4968571;28;20033;-55
2024/01/28 06:17:40;;;;;;;67.25;22.90;;;5.60;70.60;;;0.34;100.00;96991.34;4962647;28;20030;-53
2024/01/28 06:20:08;;;;;;;92.47;25.48;;;5.60;70.60;;;0.40;100.00;96989.88;4962530;28;20103;-53
2024/01/28 06:22:34;;;;;;;125.20;26.08;;;5.60;70.50;;;0.45;100.00;97000.69;4963842;28;20113;-51
2024/01/28 06:25:01;;;;;;;116.10;26.35;;;5.70;70.60;;;0.46;100.00;96994.44;4966308;28;20037;-52
2024/01/28 06:27:28;;;;;;;85.75;25.65;;;5.70;70.70;;;0.45;100.00;96996.25;4965500;28;20038;-56
2024/01/28 06:29:54;;;;;;;78.60;25.65;;;5.70;70.50;;;0.42;100.00;97001.84;4967634;28;20034;-56
2024/01/28 06:32:22;;;;;;;65.55;24.48;;;5.70;70.40;;;0.41;100.00;96996.78;4963592;28;20038;-55
2024/01/28 06:34:51;;;;;;;70.90;23.55;;;5.70;70.40;;;0.40;100.00;96990.69;4961726;28;20113;-56
2024/01/28 06:37:17;;;;;;;81.63;23.80;;;5.70;70.30;;;0.41;100.00;96996.78;4961837;28;20072;-57
2024/01/28 06:39:43;;;;;;;77.07;23.75;;;5.70;70.30;;;0.42;100.00;96996.59;4959827;28;20022;-56
2024/01/28 06:42:10;;;;;;;69.07;22.73;;;5.70;70.30;;;0.42;100.00;96996.59;4964282;28;20034;-55
2024/01/28 06:44:38;;;;;;;78.15;22.80;;;5.70;70.30;;;0.44;100.00;96999.06;4962288;28;20046;-57
2024/01/28 06:47:06;;;;;;;91.85;24.98;;;5.80;70.30;;;0.44;100.00;97001.69;4966396;28;20076;-55
2024/01/28 06:49:32;;;;;;;92.38;24.42;;;5.70;70.30;;;0.43;100.00;97002.66;4969648;28;20484;-55
2024/01/28 06:51:57;;;;;;;237.88;30.98;;;5.80;70.40;;;0.44;100.00;96996.44;4959900;28;20031;-55
2024/01/28 06:54:23;;;;;;;148.48;28.83;;;5.80;70.30;;;0.48;100.00;97002.16;4970551;28;20030;-51
2024/01/28 06:56:49;;;;;;;140.60;26.80;;;5.80;70.30;;;0.48;100.00;97004.78;4965828;28;20511;-52
2024/01/28 06:59:15;;;;;;;166.05;32.40;;;5.80;70.30;;;0.52;100.00;97003.47;4967178;28;20412;-54
2024/01/28 07:01:41;;;;;;;144.90;27.30;;;5.80;70.30;;;0.51;100.00;97007.06;4964783;28;20125;-55
2024/01/28 07:04:07;;;;;;;146.00;27.30;;;5.80;70.30;;;0.48;100.00;97008.22;4965175;28;20112;-57
2024/01/28 07:06:33;;;;;;;183.13;29.27;;;5.80;70.40;;;0.45;100.00;97011.19;4964563;28;20050;-56
2024/01/28 07:08:59;;;;;;;661.58;48.45;;;5.80;70.30;;;0.49;100.00;97006.41;4973012;28;20054;-56
2024/01/28 07:11:25;;;;;;;497.10;38.50;;;5.90;70.40;;;0.50;100.00;97003.59;4967409;28;20027;-57
2024/01/28 07:13:51;;;;;;;330.08;33.45;;;5.80;70.30;;;0.49;100.00;97001.97;4963540;28;20076;-56
2024/01/28 07:16:19;;;;;;;385.40;37.28;;;5.90;70.30;;;0.52;100.00;97004.28;4966644;28;20018;-55
2024/01/28 07:18:46;;;;;;;403.33;38.25;;;5.90;70.20;;;0.53;100.00;97010.34;4967333;28;20033;-55
2024/01/28 07:21:14;;;;;;;212.50;30.60;;;5.90;70.30;;;0.52;100.00;96999.03;4964188;28;20034;-56
2024/01/28 07:23:40;;;;;;;238.13;32.03;;;5.90;70.30;;;0.55;100.00;97011.00;4963937;28;20022;-56
2024/01/28 07:26:11;;;;;;;303.98;34.00;;;5.90;70.20;;;0.58;100.00;97019.34;4965623;28;20505;-56
2024/01/28 07:28:36;;;;;;;205.40;29.27;;;5.90;70.30;;;0.54;100.00;97017.22;4959770;28;20022;-56
2024/01/28 07:31:03;;;;;;;185.63;29.92;;;5.90;70.30;;;0.57;100.00;97015.09;4968742;28;20501;-56
2024/01/28 07:33:29;;;;;;;255.45;32.92;;;6.00;70.40;;;0.60;100.00;97020.00;4962362;28;20030;-52
2024/01/28 07:35:55;;;;;;;245.43;32.17;;;5.90;70.30;;;0.62;100.00;97018.00;4961995;28;20109;-56
2024/01/28 07:38:21;;;;;;;261.13;32.75;;;6.00;70.40;;;0.66;100.00;97021.16;4963953;28;20041;-56
2024/01/28 07:40:47;;;;;;;124.25;27.48;;;6.00;70.40;;;0.71;100.00;97025.88;4966734;28;20030;-50
2024/01/28 07:43:13;;;;;;;135.00;27.33;;;6.00;70.40;;;0.73;100.00;97026.53;4973893;28;20492;-50
2024/01/28 07:45:39;;;;;;;130.60;27.15;;;6.10;70.40;;;0.71;100.00;97013.56;4959202;28;20431;-55
2024/01/28 07:48:05;;;;;;;159.35;26.83;;;6.10;70.40;;;0.68;100.00;97014.72;4965497;28;20048;-55
2024/01/28 07:50:31;;;;;;;128.18;25.85;;;6.10;70.30;;;0.71;100.00;97026.69;4960901;28;20504;-53
2024/01/28 07:52:57;;;;;;;285.77;31.30;;;6.10;70.20;;;0.71;100.00;97013.56;4962224;28;20033;-50
2024/01/28 07:55:23;;;;;;;107.43;24.30;;;6.10;70.20;;;0.71;100.00;97028.50;4970402;28;20018;-56
2024/01/28 07:57:48;;;;;;;119.95;22.70;;;6.20;70.20;;;0.64;100.00;97018.69;4971221;28;20030;-53
2024/01/28 08:00:15;;;;;;;141.05;24.35;;;6.10;70.90;;;0.61;100.00;97013.75;4952746;28;20034;-51
2024/01/28 08:02:41;;;;;;;388.65;33.53;;;6.10;70.00;;;0.63;100.00;97013.63;4971458;28;20489;-50
2024/01/28 08:05:08;;;;;;;215.63;26.20;;;6.10;70.00;;;0.69;100.00;97020.81;4970730;28;20030;-52
2024/01/28 08:07:34;;;;;;;148.93;26.15;;;6.10;70.00;;;0.74;100.00;97017.69;4961915;28;20030;-55
2024/01/28 08:10:01;;;;;;;116.78;23.88;;;6.20;70.10;;;0.75;100.00;97024.56;4970828;28;20048;-51
2024/01/28 08:12:27;;;;;;;116.40;23.77;;;6.20;70.10;;;0.79;100.00;97018.00;4967479;28;20165;-54
2024/01/28 08:14:53;;;;;;;111.65;24.38;;;6.20;70.00;;;0.81;100.00;97014.19;4962621;28;20113;-56
2024/01/28 08:17:19;;;;;;;92.25;22.70;;;6.30;70.10;;;0.83;100.00;97007.00;4965815;28;20034;-52
2024/01/28 08:19:45;;;;;;;103.15;22.05;;;6.40;70.10;;;0.83;100.00;97007.00;4966666;28;20029;-50
2024/01/28 08:22:11;;;;;;;136.07;25.17;;;6.40;70.00;;;0.75;100.00;97004.38;4966871;28;20339;-50
2024/01/28 08:24:38;;;;;;;94.38;23.30;;;6.40;69.80;;;0.82;100.00;97005.38;4970112;28;20113;-52
2024/01/28 08:27:04;;;;;;;97.13;21.25;;;6.50;69.70;;;0.83;100.00;97004.38;4966771;28;20026;-51
2024/01/28 08:29:30;;;;;;;108.97;23.73;;;6.50;69.70;;;0.89;100.00;97005.50;4968293;28;20054;-50
2024/01/28 08:31:57;;;;;;;100.82;23.38;;;6.50;69.70;;;0.89;100.00;97006.31;4963548;28;20112;-52
2024/01/28 08:34:23;;;;;;;101.88;22.55;;;6.60;69.70;;;0.91;100.00;97014.03;4962125;28;20053;-51
2024/01/28 08:36:50;;;;;;;98.30;22.15;;;6.70;69.60;;;0.91;100.00;97019.28;4962819;28;20046;-53
2024/01/28 08:39:16;;;;;;;81.75;21.85;;;6.70;69.50;;;0.97;100.00;97018.56;4960826;28;20053;-54
2024/01/28 08:41:42;;;;;;;74.45;21.13;;;6.80;69.50;;;1.01;100.00;97014.66;4965464;28;20113;-51
2024/01/28 08:44:11;;;;;;;75.78;21.17;;;6.80;69.30;;;1.08;100.00;97017.41;4961577;28;20687;-51
2024/01/28 08:46:40;;;;;;;70.28;20.65;;;6.80;69.30;;;0.98;100.00;97025.47;4969999;28;20037;-54
2024/01/28 08:49:07;;;;;;;66.60;19.65;;;6.90;69.30;;;1.02;100.00;97021.53;4974282;23;20321;-51
2024/01/28 08:51:33;;;;;;;65.55;19.55;;;6.90;69.20;;;0.93;100.00;97019.91;4950401;28;20034;-56
2024/01/28 08:53:59;;;;;;;73.85;19.60;;;6.90;69.10;;;1.01;100.00;97019.09;4949614;28;20061;-51
2024/01/28 08:56:25;;;;;;;75.00;20.15;;;7.00;69.00;;;1.04;100.00;97013.50;4950988;28;20054;-55
2024/01/28 08:58:51;;;;;;;73.50;20.70;;;7.00;68.90;;;1.08;100.00;97018.22;4942288;28;20038;-55
2024/01/28 09:01:17;;;;;;;98.18;22.25;;;7.00;68.90;;;1.10;100.00;97018.88;4953528;28;20034;-54
2024/01/28 09:03:43;;;;;;;77.18;23.48;;;7.00;68.90;;;1.15;100.00;97019.19;4951345;28;20082;-54
2024/01/28 09:06:09;;;;;;;66.22;20.55;;;7.10;68.80;;;1.11;100.00;97015.25;4951977;28;20397;-56
2024/01/28 09:08:35;;;;;;;75.35;21.83;;;7.10;68.70;;;1.16;100.00;97014.78;4947336;28;20081;-58
2024/01/28 09:11:01;;;;;;;70.47;20.50;;;7.10;68.70;;;1.17;100.00;97011.16;4958294;28;20097;-55
2024/01/28 09:13:27;;;;;;;71.45;18.77;;;7.20;68.70;;;1.17;100.00;97024.28;4953835;28;20030;-55
2024/01/28 09:15:53;;;;;;;73.13;21.55;;;7.30;68.70;;;1.24;100.00;97024.41;4953592;28;20034;-56
2024/01/28 09:18:21;;;;;;;67.72;21.48;;;7.30;68.70;;;1.25;100.00;97026.84;4952931;28;20062;-57
2024/01/28 09:20:46;;;;;;;66.88;20.00;;;7.40;68.70;;;1.33;100.00;97037.31;4950475;28;20500;-58
2024/01/28 09:23:12;;;;;;;61.53;20.65;;;7.40;68.60;;;1.42;100.00;97032.84;4953512;28;20030;-59
2024/01/28 09:25:39;;;;;;;57.78;21.05;;;7.50;68.60;;;1.51;100.00;97031.84;4952692;28;20029;-55
2024/01/28 09:28:07;;;;;;;53.25;19.77;;;7.60;69.40;;;1.54;100.00;97033.31;4950853;28;20031;-53
2024/01/28 09:30:33;;;;;;;59.20;19.63;;;7.70;68.60;;;1.62;100.00;97031.44;4951100;28;20027;-56
2024/01/28 09:32:59;;;;;;;52.17;18.58;;;7.80;68.50;;;1.72;100.00;97022.50;4947469;28;20031;-59
2024/01/28 09:35:25;;;;;;;50.33;18.60;;;7.80;68.40;;;1.72;100.00;97033.84;4946141;29;20033;-59
2024/01/28 09:37:52;;;;;;;53.50;19.17;;;7.90;68.30;;;1.76;100.00;97035.13;4947599;29;20054;-58
2024/01/28 09:40:18;;;;;;;54.45;19.52;;;8.00;68.20;;;1.85;100.00;97035.91;4947564;28;20031;-59
2024/01/28 09:43:18;;;;;;;50.42;18.33;;;8.10;68.20;;;1.83;100.00;97032.63;4948089;28;20023;-59
2024/01/28 09:45:44;;;;;;;45.28;17.52;;;8.20;68.10;;;1.91;100.00;97037.81;4947156;28;20449;-57
2024/01/28 09:48:13;;;;;;;51.42;18.27;;;8.20;67.80;;;1.84;100.00;97042.16;4949111;28;20058;-60
2024/01/28 09:50:40;;;;;;;46.15;18.50;;;8.30;67.90;;;1.86;100.00;97040.16;4944213;29;20081;-54
2024/01/28 09:53:07;;;;;;;51.60;18.63;;;8.30;67.90;;;1.96;100.00;97045.19;4949903;28;20089;-57
2024/01/28 09:55:33;;;;;;;53.92;18.48;;;8.40;67.90;;;2.12;100.00;97050.34;4954647;28;20034;-57
2024/01/28 09:57:59;;;;;;;48.08;18.38;;;8.50;67.90;;;2.18;100.00;97046.19;4950363;28;20042;-54
2024/01/28 10:00:25;;;;;;;43.50;17.60;;;8.60;67.90;;;2.28;100.00;97052.84;4954084;28;20029;-54
2024/01/28 10:02:51;;;;;;;47.17;18.08;;;8.70;67.80;;;2.16;100.00;97048.16;4957199;28;20026;-57
2024/01/28 10:05:17;;;;;;;38.20;17.63;;;8.70;67.60;;;2.24;100.00;97048.13;4962229;28;20033;-59